Time;durP1;ratioP1;P1;durP2;ratioP2;P2;SDS_P1;SDS_P2;PMS_P1;PMS_P2;Temp;Humidity;BMP_temperature;BMP_pressure;BME280_temperature;BME280_humidity;BME280_pressure;Samples;Min_cycle;Max_cycle;Signal;HPM_P1;HPM_P2
2021/06/26 00:00:16;;;;;;;7.57;6.77;;;;;;;21.26;69.36;100379.77;124587;1095;114777;-77
2021/06/26 00:02:44;;;;;;;8.38;7.60;;;;;;;21.24;69.33;100376.31;124724;1096;103014;-78
2021/06/26 00:05:12;;;;;;;8.70;7.55;;;;;;;21.17;69.76;100373.19;124765;1096;103154;-77
2021/06/26 00:07:40;;;;;;;8.08;6.90;;;;;;;21.13;69.74;100377.94;124643;1095;114549;-78
2021/06/26 00:10:09;;;;;;;7.80;7.10;;;;;;;21.16;69.71;100375.00;124740;1095;102996;-78
2021/06/26 00:12:36;;;;;;;9.27;7.37;;;;;;;21.13;69.98;100382.50;124523;1096;116355;-78
2021/06/26 00:15:07;;;;;;;7.88;6.85;;;;;;;21.17;69.90;100390.28;124705;1095;103454;-78
2021/06/26 00:17:34;;;;;;;9.25;8.08;;;;;;;21.20;69.72;100390.05;124718;1096;103060;-78
2021/06/26 00:20:02;;;;;;;7.90;7.10;;;;;;;21.16;69.90;100390.40;124737;1095;116024;-79
2021/06/26 00:22:30;;;;;;;7.60;6.90;;;;;;;21.09;70.22;100400.80;124746;1096;103354;-79
2021/06/26 00:24:57;;;;;;;9.68;7.68;;;;;;;21.11;70.69;100400.69;124620;1095;115843;-78
2021/06/26 00:27:24;;;;;;;8.95;7.65;;;;;;;21.09;70.13;100405.36;124733;1096;102932;-78
2021/06/26 00:29:52;;;;;;;9.17;7.27;;;;;;;21.05;70.74;100413.68;124700;1096;103309;-79
2021/06/26 00:32:19;;;;;;;8.23;7.13;;;;;;;21.04;70.31;100408.38;124658;1096;114460;-79
2021/06/26 00:34:51;;;;;;;8.53;7.58;;;;;;;21.01;70.67;100405.89;124698;1096;104063;-78
2021/06/26 00:37:19;;;;;;;7.03;6.30;;;;;;;21.02;70.26;100413.91;124644;1095;114553;-79
2021/06/26 00:39:46;;;;;;;8.57;6.43;;;;;;;21.04;70.40;100421.92;124762;1096;103023;-79
2021/06/26 00:42:13;;;;;;;7.07;6.33;;;;;;;21.01;70.20;100416.73;124654;1096;116172;-79
2021/06/26 00:44:41;;;;;;;6.43;5.83;;;;;;;21.03;70.53;100417.47;124647;1095;103706;-78
2021/06/26 00:47:12;;;;;;;9.38;6.33;;;;;;;21.04;70.47;100416.50;124557;1096;103147;-78
2021/06/26 00:49:53;;;;;;;6.77;6.13;;;;;;;20.99;70.61;100424.96;124564;1096;114405;-78
2021/06/26 00:52:21;;;;;;;7.73;6.13;;;;;;;20.97;70.58;100429.60;124548;1095;103117;-78
2021/06/26 00:55:02;;;;;;;8.73;6.90;;;;;;;21.01;70.67;100432.97;124762;1096;114560;-79
2021/06/26 00:57:33;;;;;;;8.55;6.70;;;;;;;20.98;70.44;100441.29;124658;1096;103018;-79
2021/06/26 01:00:05;;;;;;;6.88;6.18;;;;;;;21.01;70.72;100451.92;124352;1095;116229;-77
2021/06/26 01:02:46;;;;;;;8.20;6.57;;;;;;;21.08;70.23;100455.92;124462;1096;103713;-77
2021/06/26 01:05:27;;;;;;;8.00;6.27;;;;;;;21.12;70.61;100459.30;124160;1099;103293;-78
2021/06/26 01:07:55;;;;;;;6.30;5.80;;;;;;;21.08;70.58;100461.34;124090;1098;115772;-79
2021/06/26 01:10:37;;;;;;;10.20;5.90;;;;;;;21.11;70.55;100461.16;124218;1100;103193;-78
2021/06/26 01:13:18;;;;;;;8.88;5.98;;;;;;;21.01;70.87;100460.05;126633;1100;115024;-78
2021/06/26 01:15:45;;;;;;;6.20;5.60;;;;;;;21.01;70.86;100457.34;125655;1099;103108;-78
2021/06/26 01:18:14;;;;;;;6.70;5.73;;;;;;;21.07;70.49;100459.60;124137;1098;114876;-77
2021/06/26 01:20:41;;;;;;;7.13;5.83;;;;;;;21.02;71.02;100451.81;123989;1100;103398;-77
2021/06/26 01:23:12;;;;;;;7.00;5.67;;;;;;;21.00;71.54;100451.04;123769;1100;103241;-78
2021/06/26 01:25:40;;;;;;;7.98;6.33;;;;;;;20.98;72.15;100457.53;124118;1100;114430;-81
2021/06/26 01:28:07;;;;;;;7.33;6.63;;;;;;;20.97;72.68;100459.39;124333;1099;103217;-80
2021/06/26 01:30:36;;;;;;;11.80;7.03;;;;;;;20.97;73.04;100461.23;124348;1100;114807;-81
2021/06/26 01:33:18;;;;;;;8.03;6.68;;;;;;;20.99;72.70;100460.16;124455;1098;103060;-81
2021/06/26 01:35:47;;;;;;;7.93;5.87;;;;;;;21.05;72.92;100459.72;124008;1100;103102;-80
2021/06/26 01:38:15;;;;;;;9.77;5.60;;;;;;;21.12;73.08;100467.42;124326;1098;114882;-81
2021/06/26 01:40:42;;;;;;;9.93;6.63;;;;;;;21.09;73.31;100465.80;124367;1099;103121;-81
2021/06/26 01:43:12;;;;;;;7.43;6.50;;;;;;;21.07;72.92;100464.16;124441;1096;114704;-82
2021/06/26 01:45:40;;;;;;;8.80;6.43;;;;;;;21.01;73.43;100457.34;124609;1094;102996;-81
2021/06/26 01:48:08;;;;;;;8.50;5.75;;;;;;;20.97;73.77;100456.67;124732;1095;114791;-82
2021/06/26 01:50:36;;;;;;;6.93;6.23;;;;;;;21.00;73.35;100450.19;124887;1096;103168;-81
2021/06/26 01:53:05;;;;;;;8.53;5.83;;;;;;;21.01;73.78;100452.78;124944;1095;102999;-81
2021/06/26 01:55:32;;;;;;;10.50;6.25;;;;;;;21.03;74.04;100444.55;124807;1096;114532;-81
2021/06/26 01:58:00;;;;;;;6.75;6.15;;;;;;;21.00;73.97;100453.75;124944;1096;102997;-81
2021/06/26 02:00:41;;;;;;;8.27;6.43;;;;;;;21.04;73.72;100447.14;124495;1096;116175;-81
2021/06/26 02:03:09;;;;;;;7.70;6.83;;;;;;;21.04;74.15;100454.41;124843;1095;103019;-81
2021/06/26 02:05:37;;;;;;;8.40;6.23;;;;;;;20.98;74.03;100447.59;125016;1095;103006;-80
2021/06/26 02:08:04;;;;;;;10.93;6.68;;;;;;;20.94;73.91;100447.89;124803;1096;115432;-80
2021/06/26 02:10:32;;;;;;;8.85;6.15;;;;;;;20.94;74.17;100445.19;124798;1096;103133;-80
2021/06/26 02:13:13;;;;;;;6.45;5.33;;;;;;;20.94;74.27;100445.19;124656;1096;114752;-81
2021/06/26 02:15:41;;;;;;;6.17;5.53;;;;;;;20.98;73.79;100441.29;124862;1095;103147;-80
2021/06/26 02:18:08;;;;;;;9.97;6.37;;;;;;;21.01;74.22;100447.36;124655;1096;116161;-81
2021/06/26 02:20:35;;;;;;;7.40;5.90;;;;;;;21.01;74.34;100457.34;124725;1096;103030;-81
2021/06/26 02:23:17;;;;;;;11.23;5.40;;;;;;;21.05;74.18;100456.16;124693;1096;103560;-80
2021/06/26 02:25:44;;;;;;;8.03;5.63;;;;;;;21.04;74.82;100465.24;124648;1096;116976;-80
2021/06/26 02:28:12;;;;;;;7.33;6.50;;;;;;;20.98;74.62;100454.83;124662;1096;102994;-80
2021/06/26 02:30:39;;;;;;;8.45;4.63;;;;;;;20.91;75.00;100450.82;124684;1096;114663;-80
2021/06/26 02:33:21;;;;;;;6.08;4.95;;;;;;;20.80;75.39;100455.13;124698;1096;102999;-80
2021/06/26 02:35:48;;;;;;;4.70;4.30;;;;;;;20.79;75.23;100453.41;124680;1096;103019;-80
2021/06/26 02:38:30;;;;;;;5.47;4.90;;;;;;;20.86;74.99;100449.30;124896;1096;114317;-80
2021/06/26 02:40:57;;;;;;;4.65;3.88;;;;;;;20.96;74.73;100445.95;124645;1096;103100;-80
2021/06/26 02:43:39;;;;;;;5.30;4.53;;;;;;;21.00;73.73;100445.63;124580;1096;114697;-80
2021/06/26 02:46:06;;;;;;;6.83;4.28;;;;;;;20.91;73.78;100440.84;124640;1095;103021;-80
2021/06/26 02:48:34;;;;;;;4.48;3.85;;;;;;;20.85;74.00;100438.58;124437;1096;114784;-80
2021/06/26 02:51:01;;;;;;;5.30;4.10;;;;;;;20.84;74.23;100434.13;124522;1095;103113;-80
2021/06/26 02:53:28;;;;;;;3.67;3.37;;;;;;;20.87;74.48;100428.50;124418;1096;103412;-80
2021/06/26 02:55:56;;;;;;;8.77;3.93;;;;;;;20.84;74.00;100434.98;124508;1095;114843;-80
2021/06/26 02:58:24;;;;;;;4.27;3.60;;;;;;;20.82;74.42;100439.66;124715;1096;103039;-80
2021/06/26 03:00:51;;;;;;;4.25;3.88;;;;;;;20.85;74.79;100433.17;124679;1096;114981;-80
2021/06/26 03:03:19;;;;;;;4.23;3.80;;;;;;;20.84;74.19;100442.25;124737;1096;103097;-80
2021/06/26 03:05:46;;;;;;;5.28;4.45;;;;;;;20.88;73.97;100444.63;124797;1095;102997;-81
2021/06/26 03:08:14;;;;;;;5.13;4.58;;;;;;;20.90;74.21;100449.97;124499;1096;115995;-80
2021/06/26 03:10:41;;;;;;;4.90;3.90;;;;;;;20.93;73.53;100449.74;124612;1096;103184;-80
2021/06/26 03:13:09;;;;;;;4.00;3.60;;;;;;;20.97;73.75;100450.41;124597;1096;114667;-80
2021/06/26 03:15:37;;;;;;;4.27;3.77;;;;;;;20.90;72.91;100455.38;124723;1095;103032;-80
2021/06/26 03:18:04;;;;;;;4.63;3.90;;;;;;;20.85;73.60;100444.00;124718;1095;102281;-79
2021/06/26 03:20:31;;;;;;;7.20;4.43;;;;;;;20.79;74.10;100450.70;124725;1096;114572;-79
2021/06/26 03:22:59;;;;;;;5.55;4.03;;;;;;;20.76;74.36;100445.48;124554;1096;103038;-79
2021/06/26 03:25:27;;;;;;;3.90;3.18;;;;;;;20.83;73.91;100445.93;124423;1096;116005;-80
2021/06/26 03:27:54;;;;;;;4.60;4.20;;;;;;;20.86;73.92;100448.45;124570;1096;103015;-80
2021/06/26 03:30:21;;;;;;;4.43;3.20;;;;;;;20.88;73.58;100451.89;124142;1096;115821;-80
2021/06/26 03:32:49;;;;;;;5.03;3.80;;;;;;;20.88;73.93;100449.19;124574;1095;103968;-78
2021/06/26 03:35:30;;;;;;;4.93;4.10;;;;;;;20.87;73.88;100453.75;124717;1095;103023;-80
2021/06/26 03:37:57;;;;;;;3.93;3.35;;;;;;;20.88;74.03;100449.19;124533;1096;116327;-80
2021/06/26 03:40:25;;;;;;;5.40;4.40;;;;;;;20.94;74.31;100447.89;124688;1095;103106;-79
2021/06/26 03:42:52;;;;;;;4.70;4.03;;;;;;;20.95;74.24;100455.05;124670;1095;113947;-79
2021/06/26 03:45:19;;;;;;;8.37;3.73;;;;;;;20.93;74.19;100455.16;124431;1096;103017;-80
2021/06/26 03:47:47;;;;;;;5.67;4.27;;;;;;;20.96;74.20;100473.89;124598;1096;102920;-80
2021/06/26 03:50:14;;;;;;;5.23;4.28;;;;;;;21.02;73.59;100473.48;124277;1095;116030;-80
2021/06/26 03:52:42;;;;;;;4.60;4.20;;;;;;;21.05;73.92;100475.11;124426;1096;103013;-79
2021/06/26 03:55:10;;;;;;;3.97;3.57;;;;;;;21.06;73.97;100474.14;124388;1096;115786;-79
2021/06/26 03:57:38;;;;;;;4.90;4.40;;;;;;;21.13;73.95;100475.44;124338;1095;103042;-79
2021/06/26 04:00:06;;;;;;;5.48;4.98;;;;;;;21.17;73.57;100479.66;124322;1096;103198;-80
2021/06/26 04:02:33;;;;;;;4.93;4.53;;;;;;;21.20;73.74;100484.00;124492;1096;114292;-80
2021/06/26 04:05:01;;;;;;;5.87;5.37;;;;;;;21.18;73.92;100481.41;124375;1096;103111;-79
2021/06/26 04:07:29;;;;;;;6.37;5.73;;;;;;;21.13;73.89;100485.41;124353;1096;114773;-79
2021/06/26 04:09:56;;;;;;;7.87;6.50;;;;;;;21.01;74.04;100471.73;124582;1096;103130;-79
2021/06/26 04:12:23;;;;;;;7.07;6.13;;;;;;;21.04;74.06;100470.66;124092;1096;115876;-79
2021/06/26 04:14:51;;;;;;;6.03;5.15;;;;;;;21.07;74.07;100477.70;124328;1095;102948;-80
2021/06/26 04:17:18;;;;;;;7.63;6.63;;;;;;;21.06;74.08;100471.44;124679;1096;103249;-78
2021/06/26 04:19:45;;;;;;;7.05;5.93;;;;;;;21.04;73.77;100473.37;124075;1096;116154;-80
2021/06/26 04:22:13;;;;;;;11.87;5.97;;;;;;;20.98;73.92;100463.83;124283;1096;102975;-80
2021/06/26 04:24:41;;;;;;;8.65;6.48;;;;;;;20.95;74.08;100471.29;124313;1095;114847;-79
2021/06/26 04:27:08;;;;;;;7.00;6.30;;;;;;;20.98;74.20;100465.66;124404;1096;103094;-80
2021/06/26 04:29:36;;;;;;;7.48;6.00;;;;;;;20.95;74.14;100464.06;124649;1096;103670;-80
2021/06/26 04:32:04;;;;;;;7.85;5.95;;;;;;;20.99;73.69;100465.58;124267;1096;116315;-80
2021/06/26 04:34:35;;;;;;;7.33;6.33;;;;;;;21.00;73.77;100472.70;124238;1095;103719;-80
2021/06/26 04:37:17;;;;;;;7.05;6.45;;;;;;;21.05;73.77;100475.11;124257;1096;114836;-80
2021/06/26 04:39:45;;;;;;;7.80;7.00;;;;;;;21.03;74.07;100472.52;124382;1096;103678;-80
2021/06/26 04:42:26;;;;;;;6.70;6.08;;;;;;;20.99;73.38;100481.82;124631;1095;115850;-80
2021/06/26 04:44:54;;;;;;;8.03;6.03;;;;;;;20.98;73.78;100484.61;124649;1095;103023;-80
2021/06/26 04:47:22;;;;;;;7.05;6.05;;;;;;;20.94;73.27;100485.80;124653;1095;103073;-81
2021/06/26 04:50:03;;;;;;;6.90;5.98;;;;;;;20.89;73.84;100483.42;127063;1100;114717;-79
2021/06/26 04:52:46;;;;;;;6.70;6.00;;;;;;;20.91;73.46;100496.84;127130;1100;100965;-78
2021/06/26 04:55:14;;;;;;;8.07;6.33;;;;;;;20.92;73.31;100498.59;127053;1099;114574;-78
2021/06/26 04:57:42;;;;;;;7.38;5.60;;;;;;;20.90;73.03;100497.81;127173;1100;101762;-78
2021/06/26 05:00:09;;;;;;;6.33;5.57;;;;;;;20.87;73.01;100501.59;127146;1100;102150;-78
2021/06/26 05:02:37;;;;;;;6.88;6.18;;;;;;;20.88;73.44;100509.60;124678;1100;114752;-79
2021/06/26 05:05:06;;;;;;;7.87;5.50;;;;;;;20.93;72.70;100511.16;124157;1100;103329;-80
2021/06/26 05:07:34;;;;;;;6.47;5.70;;;;;;;20.88;72.82;100506.89;127045;1099;114211;-80
2021/06/26 05:10:01;;;;;;;8.40;6.40;;;;;;;20.86;72.42;100510.70;127172;1099;101429;-81
2021/06/26 05:12:28;;;;;;;6.40;5.28;;;;;;;20.79;72.42;100518.38;127090;1099;116403;-80
2021/06/26 05:14:56;;;;;;;5.00;4.03;;;;;;;20.75;72.40;100532.20;127191;1100;101006;-80
2021/06/26 05:17:23;;;;;;;7.30;5.65;;;;;;;20.81;72.58;100523.68;125707;1099;103138;-81
2021/06/26 05:19:50;;;;;;;7.90;5.00;;;;;;;20.88;71.79;100530.41;124093;1099;116327;-80
2021/06/26 05:22:18;;;;;;;8.90;5.13;;;;;;;20.86;71.60;100535.08;124182;1100;103116;-79
2021/06/26 05:24:45;;;;;;;9.68;5.83;;;;;;;20.86;71.87;100529.66;123772;1100;115420;-79
2021/06/26 05:27:12;;;;;;;6.17;5.57;;;;;;;20.91;71.73;100529.33;124116;1097;103149;-80
2021/06/26 05:29:43;;;;;;;7.33;5.10;;;;;;;20.89;71.59;100524.03;124751;1095;102978;-80
2021/06/26 05:32:11;;;;;;;7.13;5.17;;;;;;;20.88;71.74;100516.87;124654;1096;115792;-80
2021/06/26 05:34:40;;;;;;;6.33;5.73;;;;;;;20.95;71.60;100526.33;124743;1096;103610;-80
2021/06/26 05:37:08;;;;;;;6.73;5.63;;;;;;;20.96;71.75;100524.48;124604;1096;114659;-80
2021/06/26 05:39:35;;;;;;;16.97;6.73;;;;;;;21.05;71.53;100511.16;124311;1095;103115;-81
2021/06/26 05:42:16;;;;;;;5.47;4.73;;;;;;;21.23;71.37;100510.01;127155;1098;101069;-79
2021/06/26 05:44:44;;;;;;;6.50;5.90;;;;;;;21.41;71.43;100510.58;127084;1099;114244;-79
2021/06/26 05:47:13;;;;;;;6.35;5.40;;;;;;;21.51;70.59;100512.53;124369;1095;103606;-80
2021/06/26 05:49:41;;;;;;;5.67;5.07;;;;;;;21.58;69.50;100517.53;124002;1096;117083;-80
2021/06/26 05:52:22;;;;;;;7.13;5.03;;;;;;;21.61;70.35;100514.63;124503;1095;103188;-81
2021/06/26 05:54:50;;;;;;;15.67;6.47;;;;;;;21.66;69.88;100521.45;124032;1096;114549;-80
2021/06/26 05:57:31;;;;;;;6.93;5.00;;;;;;;21.66;69.86;100523.27;124460;1096;103000;-81
2021/06/26 06:00:12;;;;;;;13.27;6.60;;;;;;;21.66;71.21;100526.87;127644;1096;101974;-81
2021/06/26 06:02:41;;;;;;;6.28;5.10;;;;;;;21.66;70.89;100525.98;127260;1096;114798;-81
2021/06/26 06:05:09;;;;;;;7.07;5.10;;;;;;;21.60;71.52;100523.73;127348;1096;100971;-81
2021/06/26 06:07:36;;;;;;;7.40;5.93;;;;;;;21.73;70.16;100526.44;126663;1096;114323;-81
2021/06/26 06:10:06;;;;;;;9.35;5.63;;;;;;;21.86;69.20;100514.59;124561;1096;103027;-80
2021/06/26 06:12:35;;;;;;;8.63;5.70;;;;;;;21.91;69.17;100522.38;124396;1096;115166;-81
2021/06/26 06:15:16;;;;;;;6.00;4.80;;;;;;;21.97;69.13;100523.80;124648;1096;103183;-80
2021/06/26 06:17:44;;;;;;;5.90;4.80;;;;;;;22.03;68.54;100524.23;124572;1097;102821;-81
2021/06/26 06:20:13;;;;;;;7.17;5.27;;;;;;;22.04;67.92;100523.23;124212;1096;114612;-80
2021/06/26 06:22:40;;;;;;;10.10;4.80;;;;;;;22.02;67.38;100527.91;124497;1096;103719;-81
2021/06/26 06:25:11;;;;;;;5.45;4.83;;;;;;;21.94;67.39;100526.72;124303;1096;115223;-80
2021/06/26 06:27:43;;;;;;;8.47;5.20;;;;;;;21.90;69.17;100531.52;125133;1096;102978;-80
2021/06/26 06:30:11;;;;;;;7.45;5.58;;;;;;;21.92;68.97;100526.83;124665;1096;103014;-81
2021/06/26 06:32:39;;;;;;;7.00;5.17;;;;;;;21.90;69.96;100523.38;124746;1096;115517;-81
2021/06/26 06:35:08;;;;;;;5.23;4.53;;;;;;;21.99;67.65;100524.55;124568;1096;103017;-80
2021/06/26 06:37:37;;;;;;;6.17;5.30;;;;;;;22.09;69.91;100522.91;124681;1096;115487;-80
2021/06/26 06:40:18;;;;;;;9.10;5.40;;;;;;;22.15;68.24;100519.76;124688;1094;103620;-81
2021/06/26 06:42:46;;;;;;;6.70;5.65;;;;;;;22.18;67.71;100522.23;125346;1096;115169;-81
2021/06/26 06:45:27;;;;;;;8.27;5.97;;;;;;;22.24;67.93;100525.48;127399;1096;101714;-81
2021/06/26 06:47:55;;;;;;;7.55;5.58;;;;;;;22.30;65.87;100525.90;126161;1096;102956;-81
2021/06/26 06:50:36;;;;;;;7.13;5.28;;;;;;;22.36;65.01;100532.74;124497;1096;114410;-81
2021/06/26 06:53:03;;;;;;;7.33;5.83;;;;;;;22.41;65.48;100532.42;124706;1096;103106;-80
2021/06/26 06:55:31;;;;;;;8.97;5.27;;;;;;;22.46;65.74;100531.09;124487;1096;116050;-80
2021/06/26 06:58:12;;;;;;;6.40;5.18;;;;;;;22.43;64.26;100536.75;124679;1096;102988;-80
2021/06/26 07:00:53;;;;;;;10.20;4.93;;;;;;;22.36;64.50;100538.17;124651;1095;114716;-80
2021/06/26 07:03:21;;;;;;;6.10;4.70;;;;;;;22.40;64.95;100541.53;124840;1095;103315;-80
2021/06/26 07:05:48;;;;;;;8.37;5.37;;;;;;;22.45;65.03;100534.78;124788;1096;103379;-81
2021/06/26 07:08:16;;;;;;;7.57;5.80;;;;;;;22.45;64.00;100544.78;124599;1096;115736;-80
2021/06/26 07:10:44;;;;;;;8.53;5.65;;;;;;;22.43;63.39;100542.18;124734;1096;103075;-80
2021/06/26 07:13:12;;;;;;;6.90;5.17;;;;;;;22.47;64.55;100543.69;124668;1096;114169;-80
2021/06/26 07:15:39;;;;;;;13.30;5.50;;;;;;;22.59;64.35;100538.31;124246;1096;103067;-80
2021/06/26 07:18:07;;;;;;;8.10;6.33;;;;;;;22.70;64.89;100541.09;125124;1096;102945;-81
2021/06/26 07:20:35;;;;;;;8.25;5.65;;;;;;;22.73;63.99;100548.15;124296;1096;114748;-80
2021/06/26 07:23:02;;;;;;;7.90;5.70;;;;;;;22.70;63.56;100547.38;124673;1096;103710;-80
2021/06/26 07:25:30;;;;;;;7.20;4.95;;;;;;;22.76;63.81;100558.77;124491;1096;115127;-80
2021/06/26 07:27:58;;;;;;;7.13;5.45;;;;;;;22.75;62.93;100552.45;124103;1096;103115;-80
2021/06/26 07:30:26;;;;;;;6.85;5.15;;;;;;;22.74;62.84;100560.72;124500;1096;116437;-80
2021/06/26 07:32:53;;;;;;;6.30;4.27;;;;;;;22.74;62.72;100561.61;124197;1095;103100;-78
2021/06/26 07:35:20;;;;;;;5.40;4.70;;;;;;;22.78;62.45;100560.39;124501;1096;103002;-78
2021/06/26 07:37:49;;;;;;;4.90;4.40;;;;;;;22.83;61.99;100560.02;124845;1095;116464;-78
2021/06/26 07:40:17;;;;;;;6.08;5.38;;;;;;;22.82;63.57;100544.74;124534;1096;103033;-79
2021/06/26 07:42:45;;;;;;;6.07;5.03;;;;;;;22.88;63.35;100542.42;124533;1096;114280;-80
2021/06/26 07:45:12;;;;;;;11.78;5.38;;;;;;;23.01;63.53;100538.77;124324;1096;103115;-80
2021/06/26 07:47:54;;;;;;;6.25;4.35;;;;;;;23.15;61.79;100554.02;124529;1096;103016;-80
2021/06/26 07:50:21;;;;;;;7.73;4.35;;;;;;;23.20;60.73;100543.67;124161;1095;114871;-81
2021/06/26 07:52:49;;;;;;;4.63;4.23;;;;;;;23.23;60.66;100546.14;124217;1096;103124;-79
2021/06/26 07:55:16;;;;;;;6.07;4.43;;;;;;;23.21;59.86;100548.98;124063;1095;116390;-78
2021/06/26 07:57:43;;;;;;;5.80;5.30;;;;;;;23.26;60.52;100543.20;124158;1096;103039;-80
2021/06/26 08:00:11;;;;;;;8.40;4.83;;;;;;;23.35;60.76;100547.05;124376;1096;103081;-79
2021/06/26 08:02:39;;;;;;;5.95;5.00;;;;;;;23.30;60.01;100547.41;124487;1096;114050;-79
2021/06/26 08:05:20;;;;;;;4.95;4.43;;;;;;;23.25;60.12;100544.19;124482;1096;103078;-78
2021/06/26 08:07:52;;;;;;;5.23;4.65;;;;;;;23.19;60.18;100537.38;124395;1096;116237;-80
2021/06/26 08:10:20;;;;;;;6.67;5.27;;;;;;;23.21;60.97;100535.39;124414;1096;103064;-78
2021/06/26 08:12:48;;;;;;;6.50;5.20;;;;;;;23.25;60.47;100529.74;124365;1096;114931;-78
2021/06/26 08:15:17;;;;;;;6.55;4.85;;;;;;;23.31;60.60;100524.70;124296;1096;103168;-80
2021/06/26 08:17:45;;;;;;;7.60;5.08;;;;;;;23.40;61.23;100527.67;124497;1096;103079;-79
2021/06/26 08:20:26;;;;;;;7.10;5.30;;;;;;;23.52;60.96;100524.83;124385;1096;114982;-79
2021/06/26 08:22:54;;;;;;;8.60;5.70;;;;;;;23.60;60.25;100520.66;124121;1095;103577;-79
2021/06/26 08:25:21;;;;;;;6.33;5.20;;;;;;;23.63;60.51;100529.45;124360;1095;115020;-79
2021/06/26 08:27:49;;;;;;;7.13;5.00;;;;;;;23.73;60.16;100534.16;124203;1096;103016;-78
2021/06/26 08:30:31;;;;;;;5.40;4.90;;;;;;;23.90;60.32;100532.81;124278;1096;115111;-78
2021/06/26 08:33:12;;;;;;;7.57;6.00;;;;;;;24.07;60.53;100534.18;125135;1100;103000;-79
2021/06/26 08:35:54;;;;;;;8.30;4.80;;;;;;;24.09;58.49;100535.79;124129;1099;103276;-77
2021/06/26 08:38:21;;;;;;;6.03;3.60;;;;;;;24.01;56.78;100535.55;124347;1096;114771;-80
2021/06/26 08:40:53;;;;;;;6.87;3.53;;;;;;;24.01;56.48;100535.55;124351;1096;103533;-78
2021/06/26 08:43:24;;;;;;;5.48;4.48;;;;;;;24.04;57.89;100530.73;124550;1096;114384;-77
2021/06/26 08:45:51;;;;;;;5.83;4.25;;;;;;;24.09;57.09;100534.94;124624;1095;103102;-79
2021/06/26 08:48:19;;;;;;;4.90;4.40;;;;;;;24.08;57.04;100533.20;124659;1094;103168;-80
2021/06/26 08:50:47;;;;;;;7.27;4.27;;;;;;;24.06;56.12;100535.16;124138;1096;116007;-79
2021/06/26 08:53:14;;;;;;;6.70;4.40;;;;;;;24.05;56.04;100539.75;124668;1096;102999;-78
2021/06/26 08:55:42;;;;;;;5.50;4.70;;;;;;;23.98;56.72;100535.81;124623;1095;115436;-79
2021/06/26 08:58:09;;;;;;;6.20;4.27;;;;;;;23.99;56.07;100537.52;124593;1095;103138;-79
2021/06/26 09:00:37;;;;;;;4.03;3.47;;;;;;;23.91;52.85;100545.44;124219;1096;116185;-78
2021/06/26 09:03:09;;;;;;;3.90;3.30;;;;;;;23.78;53.40;100543.67;124453;1096;103653;-79
2021/06/26 09:05:51;;;;;;;3.70;2.75;;;;;;;23.62;52.04;100541.30;124770;1096;102967;-78
2021/06/26 09:08:20;;;;;;;4.28;3.38;;;;;;;23.58;52.63;100547.98;124596;1095;114618;-78
2021/06/26 09:10:50;;;;;;;3.33;2.70;;;;;;;23.56;50.98;100543.64;125221;1095;102933;-78
2021/06/26 09:13:25;;;;;;;3.73;2.57;;;;;;;23.47;49.72;100540.67;124591;1096;116112;-79
2021/06/26 09:16:13;;;;;;;3.50;2.40;;;;;;;23.40;51.61;100541.27;125081;1096;103149;-77
2021/06/26 09:18:42;;;;;;;5.07;2.70;;;;;;;23.41;51.89;100540.28;124629;1096;115135;-80
2021/06/26 09:21:20;;;;;;;3.60;3.03;;;;;;;23.43;52.03;100533.74;124664;1095;103000;-79
2021/06/26 09:24:07;;;;;;;5.18;3.45;;;;;;;23.49;52.91;100530.52;124557;1096;103176;-80
2021/06/26 09:26:37;;;;;;;5.07;3.70;;;;;;;23.56;51.86;100530.91;123934;1096;114709;-79
2021/06/26 09:29:13;;;;;;;3.35;3.00;;;;;;;23.60;52.92;100528.81;124319;1095;103037;-78
2021/06/26 09:32:03;;;;;;;6.93;3.33;;;;;;;23.68;52.51;100532.64;124139;1095;115976;-79
2021/06/26 09:34:45;;;;;;;4.10;3.30;;;;;;;23.70;52.77;100535.27;124615;1096;103018;-79
2021/06/26 09:37:31;;;;;;;4.70;3.70;;;;;;;23.82;52.78;100526.12;123981;1096;114943;-79
2021/06/26 09:40:00;;;;;;;5.60;3.55;;;;;;;24.08;52.39;100525.89;124131;1096;103116;-79
2021/06/26 09:42:36;;;;;;;7.23;4.90;;;;;;;24.29;50.97;100527.86;126996;1098;115471;-77
2021/06/26 09:45:20;;;;;;;3.98;3.58;;;;;;;24.48;51.33;100533.48;127074;1099;100974;-77
2021/06/26 09:47:48;;;;;;;5.25;3.90;;;;;;;24.58;50.77;100530.89;126630;1100;102094;-79
2021/06/26 09:50:28;;;;;;;6.43;2.97;;;;;;;24.80;50.61;100524.52;124029;1100;114245;-79
2021/06/26 09:52:57;;;;;;;5.28;3.40;;;;;;;25.19;49.32;100524.84;124169;1099;103007;-80
2021/06/26 09:55:26;;;;;;;6.48;4.05;;;;;;;26.15;47.67;100510.17;124154;1100;115826;-79
2021/06/26 09:58:15;;;;;;;4.10;3.53;;;;;;;27.58;45.54;100503.33;127249;1099;101756;-79
2021/06/26 10:00:43;;;;;;;4.30;3.10;;;;;;;28.98;43.09;100505.89;124745;1099;115920;-78
2021/06/26 10:03:12;;;;;;;3.20;2.90;;;;;;;30.09;39.34;100504.42;124440;1100;103065;-78
2021/06/26 10:05:40;;;;;;;2.97;2.50;;;;;;;30.75;38.11;100504.64;124227;1098;103147;-81
2021/06/26 10:08:07;;;;;;;3.48;2.30;;;;;;;31.37;35.69;100508.78;124066;1099;115908;-81
2021/06/26 10:10:35;;;;;;;3.23;2.48;;;;;;;32.02;35.16;100512.44;124054;1098;103646;-80
2021/06/26 10:13:03;;;;;;;4.70;2.53;;;;;;;32.56;35.17;100513.56;123886;1098;114784;-79
2021/06/26 10:15:45;;;;;;;4.85;3.05;;;;;;;33.39;32.51;100505.53;124730;1096;103204;-79
2021/06/26 10:18:13;;;;;;;2.55;2.23;;;;;;;33.91;31.76;100503.78;124226;1096;103488;-81
2021/06/26 10:20:41;;;;;;;4.13;2.43;;;;;;;34.12;30.03;100501.13;124407;1096;115600;-81
2021/06/26 10:23:09;;;;;;;3.55;2.43;;;;;;;34.32;29.15;100500.52;124593;1096;103121;-80
2021/06/26 10:25:39;;;;;;;3.93;2.38;;;;;;;34.60;30.15;100500.65;124535;1096;114667;-81
2021/06/26 10:28:16;;;;;;;2.27;2.07;;;;;;;35.15;29.99;100491.84;124880;1096;103041;-81
2021/06/26 10:31:00;;;;;;;4.40;2.55;;;;;;;35.42;28.76;100492.07;124412;1095;114835;-80
2021/06/26 10:33:30;;;;;;;2.38;2.08;;;;;;;35.61;27.46;100498.80;124663;1096;102920;-82
2021/06/26 10:36:00;;;;;;;3.75;2.28;;;;;;;35.63;27.86;100494.77;124542;1096;103636;-81
2021/06/26 10:38:45;;;;;;;9.08;3.18;;;;;;;35.48;27.36;100494.01;125006;1096;114519;-81
2021/06/26 10:41:17;;;;;;;4.27;2.10;;;;;;;35.71;26.89;100499.30;124670;1095;103159;-82
2021/06/26 10:44:14;;;;;;;2.60;2.20;;;;;;;35.75;26.23;100506.14;124551;1095;116233;-82
2021/06/26 10:46:48;;;;;;;2.70;2.45;;;;;;;36.05;27.32;100505.05;124747;1096;103364;-81
2021/06/26 10:49:15;;;;;;;3.30;2.50;;;;;;;36.28;26.65;100490.84;124204;1096;115995;-81
2021/06/26 10:51:44;;;;;;;6.00;2.67;;;;;;;36.64;26.85;100490.56;124243;1097;103075;-81
2021/06/26 10:54:18;;;;;;;5.27;2.67;;;;;;;37.06;26.19;100492.34;124274;1096;103060;-82
2021/06/26 10:56:48;;;;;;;3.20;2.20;;;;;;;37.23;25.85;100488.06;124930;1096;114649;-81
2021/06/26 10:59:20;;;;;;;3.20;2.10;;;;;;;36.58;24.72;100480.28;124562;1096;103188;-80
2021/06/26 11:02:03;;;;;;;2.88;1.60;;;;;;;35.96;26.80;100473.86;124302;1096;114542;-80
2021/06/26 11:04:33;;;;;;;3.00;1.83;;;;;;;35.50;27.76;100469.75;124554;1096;103162;-81
2021/06/26 11:07:09;;;;;;;5.83;2.58;;;;;;;34.89;27.63;100473.92;124358;1096;117783;-81
2021/06/26 11:09:50;;;;;;;2.53;2.30;;;;;;;34.14;30.05;100476.89;124259;1096;103146;-81
2021/06/26 11:12:47;;;;;;;3.43;2.50;;;;;;;33.37;30.72;100485.56;124573;1096;115257;-80
2021/06/26 11:15:25;;;;;;;3.77;2.60;;;;;;;32.52;31.83;100477.22;124131;1096;103129;-80
2021/06/26 11:17:53;;;;;;;4.80;3.20;;;;;;;31.77;33.29;100476.70;124560;1096;103147;-79
2021/06/26 11:20:21;;;;;;;4.90;2.87;;;;;;;31.10;33.24;100475.10;123993;1096;114682;-80
2021/06/26 11:22:54;;;;;;;5.00;3.55;;;;;;;30.41;35.49;100472.58;124238;1096;103230;-80
2021/06/26 11:25:26;;;;;;;4.27;3.23;;;;;;;29.82;36.56;100470.63;124197;1096;115693;-79